createdAt,value
2018-02-08T00:00:23.110Z,83.40
2018-02-08T00:02:26.521Z,83.40
2018-02-08T00:04:29.097Z,83.40
2018-02-08T00:06:31.770Z,83.80
2018-02-08T00:08:34.376Z,83.40
2018-02-08T00:10:36.957Z,83.50
2018-02-08T00:12:39.585Z,84.40
2018-02-08T00:14:42.946Z,83.40
2018-02-08T00:16:45.523Z,83.40
2018-02-08T00:18:48.140Z,83.00
2018-02-08T00:20:50.860Z,83.60
2018-02-08T00:22:53.440Z,84.10
2018-02-08T00:24:56.019Z,84.20
2018-02-08T00:26:58.647Z,83.60
2018-02-08T00:29:01.265Z,83.20
2018-02-08T00:31:03.897Z,82.70
2018-02-08T00:33:06.505Z,83.10
2018-02-08T00:35:09.119Z,83.00
2018-02-08T00:37:12.461Z,82.90
2018-02-08T00:39:15.059Z,82.80
2018-02-08T00:41:17.633Z,82.50
2018-02-08T00:43:20.251Z,82.90
2018-02-08T00:45:22.878Z,82.80
2018-02-08T00:47:25.480Z,82.80
2018-02-08T00:49:28.854Z,82.70
2018-02-08T00:51:31.432Z,82.70
2018-02-08T00:53:34.020Z,82.70
2018-02-08T00:55:37.381Z,82.50
2018-02-08T00:57:39.965Z,82.50
2018-02-08T00:59:43.336Z,83.10
2018-02-08T01:01:45.937Z,82.70
2018-02-08T01:03:48.533Z,82.60
2018-02-08T01:05:51.162Z,83.30
2018-02-08T01:07:53.742Z,82.10
2018-02-08T01:09:56.339Z,83.00
2018-02-08T01:11:59.708Z,82.80
2018-02-08T01:14:02.320Z,82.80
2018-02-08T01:16:05.685Z,82.70
2018-02-08T01:18:08.277Z,82.70
2018-02-08T01:20:11.625Z,82.90
2018-02-08T01:22:14.235Z,82.90
2018-02-08T01:24:16.832Z,82.30
2018-02-08T01:26:19.428Z,82.10
2018-02-08T01:28:22.130Z,82.30
2018-02-08T01:30:24.791Z,82.10
2018-02-08T01:32:27.333Z,82.20
2018-02-08T01:34:29.912Z,82.10
2018-02-08T01:36:32.545Z,82.30
2018-02-08T01:38:35.132Z,82.20
2018-02-08T01:40:38.497Z,81.40
2018-02-08T01:42:41.118Z,81.40
2018-02-08T01:44:43.704Z,81.90
2018-02-08T01:46:46.320Z,81.80
2018-02-08T01:48:48.936Z,82.30
2018-02-08T01:50:52.325Z,83.00
2018-02-08T01:52:55.790Z,82.30
2018-02-08T01:54:58.380Z,82.80
2018-02-08T01:57:01.729Z,82.20
2018-02-08T01:59:04.353Z,82.20
2018-02-08T02:01:07.692Z,82.80
2018-02-08T02:03:10.328Z,82.80
2018-02-08T02:05:13.686Z,82.20
2018-02-08T02:07:16.274Z,82.20
2018-02-08T02:09:18.964Z,82.30
2018-02-08T02:11:22.308Z,81.90
2018-02-08T02:13:25.673Z,82.00
2018-02-08T02:15:28.260Z,82.00
2018-02-08T02:17:30.851Z,82.40
2018-02-08T02:19:33.442Z,82.50
2018-02-08T02:21:36.890Z,81.90
2018-02-08T02:23:39.465Z,81.80
2018-02-08T02:25:42.272Z,82.90
2018-02-08T02:27:44.876Z,82.60
2018-02-08T02:29:47.454Z,82.60
2018-02-08T02:31:50.063Z,81.30
2018-02-08T02:33:52.708Z,82.30
2018-02-08T02:35:56.105Z,82.30
2018-02-08T02:37:59.494Z,82.40
2018-02-08T02:40:02.861Z,82.60
2018-02-08T02:42:05.468Z,82.60
2018-02-08T02:44:08.989Z,81.60
2018-02-08T02:46:11.577Z,81.50
2018-02-08T02:48:14.161Z,82.20
2018-02-08T02:50:16.768Z,81.90
2018-02-08T02:52:19.372Z,81.90
2018-02-08T02:54:22.025Z,81.90
2018-02-08T02:56:25.385Z,81.60
2018-02-08T02:58:28.790Z,81.90
2018-02-08T03:00:31.404Z,81.90
2018-02-08T03:02:34.033Z,82.10
2018-02-08T03:04:36.651Z,81.40
2018-02-08T03:06:39.997Z,81.50
2018-02-08T03:08:42.625Z,81.50
2018-02-08T03:10:45.301Z,81.60
2018-02-08T03:12:47.898Z,80.80
2018-02-08T03:14:50.510Z,81.30
2018-02-08T03:16:53.164Z,81.50
2018-02-08T03:18:55.781Z,81.20
2018-02-08T03:20:59.146Z,82.40
2018-02-08T03:23:01.734Z,82.20
2018-02-08T03:25:04.311Z,81.90
2018-02-08T03:27:06.922Z,82.20
2018-02-08T03:29:09.593Z,81.40
2018-02-08T03:33:44.779Z,81.30
2018-02-08T03:35:47.491Z,81.30
2018-02-08T03:37:50.089Z,81.20
2018-02-08T03:39:52.676Z,80.60
2018-02-08T03:41:55.289Z,80.20
2018-02-08T03:43:57.900Z,80.10
2018-02-08T03:46:01.241Z,80.10
2018-02-08T03:48:03.845Z,80.10
2018-02-08T03:50:07.213Z,80.60
2018-02-08T03:52:09.806Z,80.60
2018-02-08T03:54:12.460Z,81.40
2018-02-08T03:56:15.033Z,81.60
2018-02-08T03:58:17.620Z,81.30
2018-02-08T04:00:20.256Z,81.30
2018-02-08T04:02:22.832Z,81.30
2018-02-08T04:04:25.427Z,81.00
2018-02-08T04:06:28.011Z,81.10
2018-02-08T04:08:30.602Z,81.80
2018-02-08T04:10:33.240Z,81.10
2018-02-08T04:12:35.842Z,81.50
2018-02-08T04:14:38.431Z,81.80
2018-02-08T04:16:41.018Z,82.00
2018-02-08T04:18:44.381Z,82.70
2018-02-08T04:20:47.003Z,82.60
2018-02-08T04:22:49.589Z,82.40
2018-02-08T04:24:52.195Z,81.80
2018-02-08T04:26:54.798Z,81.60
2018-02-08T04:28:58.177Z,82.30
2018-02-08T04:31:00.753Z,82.30
2018-02-08T04:33:03.354Z,82.20
2018-02-08T04:35:06.721Z,82.20
2018-02-08T04:37:09.314Z,82.30
2018-02-08T04:39:23.907Z,82.40
2018-02-08T04:41:38.322Z,82.40
2018-02-08T04:43:53.608Z,83.50
2018-02-08T04:46:08.011Z,83.50
2018-02-08T04:48:10.572Z,83.20
2018-02-08T04:50:13.190Z,83.50
2018-02-08T04:52:16.541Z,83.30
2018-02-08T04:54:19.153Z,83.30
2018-02-08T04:56:22.505Z,83.50
2018-02-08T04:58:25.103Z,83.40
2018-02-08T05:00:27.753Z,83.40
2018-02-08T05:02:30.344Z,83.60
2018-02-08T05:04:32.957Z,83.60
2018-02-08T05:06:36.315Z,83.60
2018-02-08T05:08:38.907Z,83.60
2018-02-08T05:10:42.289Z,82.50
2018-02-08T05:12:44.873Z,82.50
2018-02-08T05:14:48.256Z,83.00
2018-02-08T05:16:50.862Z,82.90
2018-02-08T05:18:53.488Z,82.90
2018-02-08T05:20:56.108Z,83.70
2018-02-08T05:22:58.685Z,84.20
2018-02-08T05:25:01.285Z,83.40
2018-02-08T05:27:03.948Z,83.50
2018-02-08T05:29:06.526Z,83.60
2018-02-08T05:31:09.124Z,82.80
2018-02-08T05:33:11.783Z,83.10
2018-02-08T05:35:14.374Z,83.10
2018-02-08T05:37:16.973Z,83.30
2018-02-08T05:39:19.572Z,83.20
2018-02-08T05:41:23.050Z,83.00
2018-02-08T05:43:25.640Z,83.00
2018-02-08T05:45:29.051Z,82.90
2018-02-08T05:47:31.641Z,82.90
2018-02-08T05:49:34.313Z,82.60
2018-02-08T05:51:36.930Z,82.70
2018-02-08T05:53:39.505Z,82.60
2018-02-08T05:55:42.138Z,82.90
2018-02-08T05:57:46.360Z,82.40
2018-02-08T05:59:48.960Z,82.60
2018-02-08T06:01:51.541Z,82.10
2018-02-08T06:03:54.136Z,82.20
2018-02-08T06:05:57.477Z,82.00
2018-02-08T06:08:00.201Z,82.00
2018-02-08T06:10:03.604Z,81.40
2018-02-08T06:12:06.945Z,81.00
2018-02-08T06:14:09.610Z,81.00
2018-02-08T06:16:12.228Z,80.90
2018-02-08T06:18:15.625Z,81.40
2018-02-08T06:20:18.217Z,81.40
2018-02-08T06:22:21.574Z,81.30
2018-02-08T06:24:24.944Z,81.50
2018-02-08T06:26:27.516Z,81.50
2018-02-08T06:28:30.117Z,81.50
2018-02-08T06:30:32.700Z,81.40
2018-02-08T06:32:35.312Z,81.50
2018-02-08T06:34:37.884Z,80.70
2018-02-08T06:36:40.468Z,81.00
2018-02-08T06:38:43.075Z,81.30
2018-02-08T06:40:45.686Z,82.00
2018-02-08T06:42:49.055Z,80.60
2018-02-08T06:44:51.645Z,80.60
2018-02-08T06:46:55.062Z,81.00
2018-02-08T06:48:57.670Z,81.00
2018-02-08T06:51:00.250Z,81.80
2018-02-08T06:53:02.842Z,81.50
2018-02-08T06:55:05.440Z,80.70
2018-02-08T06:57:08.794Z,80.40
2018-02-08T06:59:11.436Z,80.30
2018-02-08T07:01:14.086Z,80.60
2018-02-08T07:03:17.474Z,80.60
2018-02-08T07:05:20.816Z,80.70
2018-02-08T07:07:23.391Z,80.80
2018-02-08T07:09:25.989Z,80.40
2018-02-08T07:11:28.575Z,80.40
2018-02-08T07:13:31.184Z,80.90
2018-02-08T07:15:34.513Z,80.40
2018-02-08T07:17:37.092Z,80.60
2018-02-08T07:19:39.704Z,80.10
2018-02-08T07:21:43.158Z,79.00
2018-02-08T07:23:45.745Z,79.00
2018-02-08T07:25:48.353Z,79.80
2018-02-08T07:27:50.977Z,80.10
2018-02-08T07:29:53.578Z,80.70
2018-02-08T07:31:56.196Z,80.90
2018-02-08T07:33:58.779Z,80.90
2018-02-08T07:36:01.366Z,80.30
2018-02-08T07:38:03.969Z,80.40
2018-02-08T07:40:06.562Z,80.60
2018-02-08T07:42:09.935Z,79.90
2018-02-08T07:44:12.538Z,79.90
2018-02-08T07:46:15.899Z,80.00
2018-02-08T07:48:18.477Z,80.00
2018-02-08T07:50:21.072Z,80.90
2018-02-08T07:52:24.441Z,81.90
2018-02-08T07:54:27.093Z,81.90
2018-02-08T07:56:30.472Z,81.20
2018-02-08T07:58:33.070Z,81.20
2018-02-08T08:00:35.669Z,81.50
2018-02-08T08:02:39.045Z,81.60
2018-02-08T08:04:41.624Z,81.60
2018-02-08T08:06:44.236Z,81.40
2018-02-08T08:08:46.849Z,81.20
2018-02-08T08:10:50.913Z,81.80
2018-02-08T08:12:53.508Z,81.50
2018-02-08T08:14:56.108Z,81.20
2018-02-08T08:16:58.712Z,81.30
2018-02-08T08:19:01.285Z,81.20
2018-02-08T08:21:05.441Z,81.20
2018-02-08T08:23:08.055Z,81.20
2018-02-08T08:25:10.668Z,81.50
2018-02-08T08:27:13.305Z,81.30
2018-02-08T08:29:15.884Z,81.50
2018-02-08T08:31:18.508Z,81.40
2018-02-08T08:33:21.124Z,81.10
2018-02-08T08:35:23.730Z,80.90
2018-02-08T08:37:27.093Z,80.50
2018-02-08T08:39:29.673Z,80.50
2018-02-08T08:41:32.259Z,80.40
2018-02-08T08:43:35.670Z,79.70
2018-02-08T08:45:38.257Z,79.70
2018-02-08T08:47:40.828Z,80.20
2018-02-08T08:49:43.438Z,80.00
2018-02-08T08:51:46.070Z,79.50
2018-02-08T08:53:48.669Z,79.50
2018-02-08T08:55:51.276Z,79.90
2018-02-08T08:57:53.884Z,79.30
2018-02-08T08:59:57.228Z,79.30
2018-02-08T09:01:59.826Z,79.30
2018-02-08T09:04:02.476Z,79.10
2018-02-08T09:06:05.062Z,78.80
2018-02-08T09:08:07.692Z,79.10
2018-02-08T09:10:10.277Z,79.60
2018-02-08T09:12:13.625Z,79.50
2018-02-08T09:14:16.222Z,79.40
2018-02-08T09:16:18.821Z,79.40
2018-02-08T09:18:21.428Z,78.90
2018-02-08T09:20:24.029Z,79.00
2018-02-08T09:22:27.386Z,78.20
2018-02-08T09:24:29.972Z,78.00
2018-02-08T09:26:32.572Z,78.30
2018-02-08T09:28:35.952Z,77.60
2018-02-08T09:30:38.533Z,77.50
2018-02-08T09:32:41.958Z,75.90
2018-02-08T09:34:44.560Z,75.80
2018-02-08T09:36:47.145Z,75.90
2018-02-08T09:38:49.768Z,76.10
2018-02-08T09:40:52.363Z,75.70
2018-02-08T09:42:54.951Z,75.80
2018-02-08T09:44:57.525Z,75.30
2018-02-08T09:47:00.137Z,75.80
2018-02-08T09:49:02.726Z,75.00
2018-02-08T09:51:06.178Z,75.10
2018-02-08T09:53:09.526Z,74.50
2018-02-08T09:55:12.112Z,74.40
2018-02-08T09:57:14.702Z,74.60
2018-02-08T09:59:17.285Z,73.90
2018-02-08T10:01:19.913Z,73.90
2018-02-08T10:03:23.260Z,73.30
2018-02-08T10:05:25.844Z,73.30
2018-02-08T10:07:28.440Z,73.30
2018-02-08T10:09:31.776Z,73.70
2018-02-08T10:11:34.360Z,73.70
2018-02-08T10:13:36.957Z,72.90
2018-02-08T10:15:39.537Z,73.70
2018-02-08T10:17:42.141Z,73.00
2018-02-08T10:19:45.481Z,74.30
2018-02-08T10:21:48.056Z,74.30
2018-02-08T10:23:50.664Z,74.10
2018-02-08T10:25:54.069Z,74.50
2018-02-08T10:27:57.437Z,72.90
2018-02-08T10:30:00.051Z,72.90
2018-02-08T10:32:02.644Z,73.70
2018-02-08T10:34:05.269Z,73.50
2018-02-08T10:36:08.624Z,74.30
2018-02-08T10:38:11.230Z,74.30
2018-02-08T10:40:13.824Z,72.80
2018-02-08T10:42:17.196Z,72.50
2018-02-08T10:44:19.784Z,72.50
2018-02-08T10:46:23.233Z,74.20
2018-02-08T10:48:25.810Z,74.20
2018-02-08T10:50:28.421Z,74.20
2018-02-08T10:52:31.797Z,73.50
2018-02-08T10:54:34.381Z,73.50
2018-02-08T10:56:37.005Z,72.70
2018-02-08T10:58:39.599Z,72.00
2018-02-08T11:00:42.188Z,72.70
2018-02-08T11:02:44.801Z,74.10
2018-02-08T11:04:47.447Z,74.00
2018-02-08T11:06:50.044Z,73.60
2018-02-08T11:08:53.386Z,73.60
2018-02-08T11:10:55.988Z,73.50
2018-02-08T11:12:58.580Z,72.90
2018-02-08T11:15:01.936Z,73.10
2018-02-08T11:17:04.545Z,73.10
2018-02-08T11:19:07.924Z,71.10
2018-02-08T11:21:10.493Z,71.00
2018-02-08T11:23:13.129Z,71.20
2018-02-08T11:25:15.721Z,71.30
2018-02-08T11:27:18.422Z,70.70
2018-02-08T11:29:21.242Z,70.30
2018-02-08T11:31:23.846Z,69.70
2018-02-08T11:33:26.433Z,69.80
2018-02-08T11:35:29.036Z,70.10
2018-02-08T11:37:32.396Z,70.70
2018-02-08T11:39:35.008Z,70.70
2018-02-08T11:41:38.611Z,72.60
2018-02-08T11:43:41.962Z,71.90
2018-02-08T11:45:45.085Z,71.90
2018-02-08T11:47:48.424Z,71.20
2018-02-08T11:49:51.033Z,71.20
2018-02-08T11:51:53.638Z,70.70
2018-02-08T11:53:56.218Z,70.00
2018-02-08T11:55:58.820Z,72.00
2018-02-08T11:58:01.397Z,72.50
2018-02-08T12:00:04.044Z,72.40
2018-02-08T12:02:06.638Z,73.70
2018-02-08T12:04:09.224Z,71.80
2018-02-08T12:06:11.820Z,72.00
2018-02-08T12:08:14.402Z,72.70
2018-02-08T12:10:16.989Z,73.80
2018-02-08T12:12:20.391Z,73.60
2018-02-08T12:14:22.972Z,73.60
2018-02-08T12:16:25.601Z,74.10
2018-02-08T12:18:28.330Z,73.80
2018-02-08T12:20:30.907Z,73.50
2018-02-08T12:22:33.514Z,73.50
2018-02-08T12:24:36.119Z,73.70
2018-02-08T12:26:38.697Z,74.50
2018-02-08T12:28:42.065Z,74.00
2018-02-08T12:30:44.651Z,74.00
2018-02-08T12:32:47.300Z,73.00
2018-02-08T12:34:49.921Z,73.60
2018-02-08T12:36:53.304Z,74.40
2018-02-08T12:38:55.880Z,74.30
2018-02-08T12:40:59.251Z,74.30
2018-02-08T12:43:01.850Z,74.30
2018-02-08T12:45:05.206Z,74.50
2018-02-08T12:47:08.714Z,74.60
2018-02-08T12:49:11.285Z,74.60
2018-02-08T12:51:13.881Z,74.40
2018-02-08T12:53:17.269Z,73.70
2018-02-08T12:55:19.889Z,73.10
2018-02-08T12:57:22.530Z,73.20
2018-02-08T12:59:25.891Z,74.30
2018-02-08T13:01:28.506Z,74.20
2018-02-08T13:03:31.856Z,74.40
2018-02-08T13:05:35.237Z,73.40
2018-02-08T13:07:37.848Z,73.30
2018-02-08T13:09:41.213Z,73.60
2018-02-08T13:11:43.808Z,73.70
2018-02-08T13:13:46.420Z,73.80
2018-02-08T13:15:49.004Z,74.10
2018-02-08T13:17:51.604Z,74.80
2018-02-08T13:19:54.177Z,74.60
2018-02-08T13:21:56.778Z,74.40
2018-02-08T13:23:59.387Z,74.60
2018-02-08T13:26:02.005Z,74.30
2018-02-08T13:28:04.746Z,74.80
2018-02-08T13:30:08.070Z,74.60
2018-02-08T13:32:11.142Z,74.60
2018-02-08T13:34:13.774Z,74.30
2018-02-08T13:36:17.129Z,74.20
2018-02-08T13:38:19.708Z,74.20
2018-02-08T13:40:22.313Z,73.50
2018-02-08T13:42:25.737Z,74.00
2018-02-08T13:44:28.316Z,74.00
2018-02-08T13:46:30.913Z,73.80
2018-02-08T13:48:36.925Z,73.70
2018-02-08T13:53:28.601Z,74.00
2018-02-08T13:55:33.787Z,74.00
2018-02-08T13:57:42.596Z,74.30
2018-02-08T13:59:51.490Z,74.30
2018-02-08T14:01:57.569Z,74.30
2018-02-08T14:04:00.989Z,73.60
2018-02-08T14:06:03.576Z,73.60
2018-02-08T14:08:06.194Z,73.90
2018-02-08T14:10:08.782Z,73.60
2018-02-08T14:12:12.201Z,73.80
2018-02-08T14:14:14.821Z,73.80
2018-02-08T14:16:17.409Z,74.00
2018-02-08T14:18:19.997Z,75.10
2018-02-08T14:20:23.369Z,74.20
2018-02-08T14:22:26.125Z,74.20
2018-02-08T14:24:28.844Z,74.20
2018-02-08T14:26:32.228Z,74.50
2018-02-08T14:28:34.824Z,74.30
2018-02-08T14:30:38.199Z,73.60
2018-02-08T14:32:40.777Z,74.20
2018-02-08T14:34:43.456Z,73.90
2018-02-08T14:36:46.901Z,73.20
2018-02-08T14:38:49.481Z,73.20
2018-02-08T14:40:52.102Z,73.20
2018-02-08T14:42:55.722Z,74.20
2018-02-08T14:44:58.353Z,74.20
2018-02-08T14:47:00.958Z,74.20
2018-02-08T14:49:04.733Z,75.00
2018-02-08T14:51:07.333Z,75.00
2018-02-08T14:53:10.690Z,76.20
2018-02-08T14:55:13.289Z,76.20
2018-02-08T14:57:16.757Z,76.90
2018-02-08T14:59:19.360Z,76.70
2018-02-08T15:01:22.725Z,76.10
2018-02-08T15:03:25.348Z,76.10
2018-02-08T15:05:27.937Z,76.10
2018-02-08T15:07:30.581Z,75.70
2018-02-08T15:09:33.957Z,75.70
2018-02-08T15:11:36.548Z,75.60
2018-02-08T15:13:39.890Z,77.70
2018-02-08T15:15:42.482Z,77.70
2018-02-08T15:17:45.110Z,76.50
2018-02-08T15:19:47.733Z,77.10
2018-02-08T15:21:50.322Z,77.10
2018-02-08T15:23:52.932Z,77.00
2018-02-08T15:25:55.533Z,76.80
2018-02-08T15:27:58.393Z,77.50
2018-02-08T15:30:01.010Z,76.70
2018-02-08T15:32:03.607Z,77.00
2018-02-08T15:34:06.978Z,76.70
2018-02-08T15:36:09.566Z,76.70
2018-02-08T15:38:12.150Z,76.60
2018-02-08T15:40:15.562Z,76.60
2018-02-08T15:42:18.180Z,76.50
2018-02-08T15:44:20.785Z,76.90
2018-02-08T15:46:24.132Z,77.80
2018-02-08T15:48:26.723Z,77.80
2018-02-08T15:50:29.353Z,77.50
2018-02-08T15:52:31.977Z,77.70
2018-02-08T15:54:34.659Z,78.30
2018-02-08T15:56:37.261Z,78.50
2018-02-08T15:58:40.751Z,78.60
2018-02-08T16:00:44.132Z,78.50
2018-02-08T16:02:46.738Z,78.40
2018-02-08T16:04:49.385Z,78.40
2018-02-08T16:06:51.989Z,78.20
2018-02-08T16:08:54.572Z,77.90
2018-02-08T16:10:57.169Z,78.00
2018-02-08T16:12:59.817Z,77.70
2018-02-08T16:15:02.409Z,78.00
2018-02-08T16:17:05.055Z,77.50
2018-02-08T16:19:07.644Z,78.00
2018-02-08T16:21:10.274Z,77.70
2018-02-08T16:23:12.885Z,78.00
2018-02-08T16:25:15.467Z,78.50
2018-02-08T16:27:18.054Z,79.10
2018-02-08T16:29:20.665Z,79.10
2018-02-08T16:31:23.271Z,79.50
2018-02-08T16:33:26.637Z,80.50
2018-02-08T16:35:29.233Z,80.50
2018-02-08T16:37:32.596Z,80.40
2018-02-08T16:39:35.207Z,80.50
2018-02-08T16:41:37.793Z,80.70
2018-02-08T16:43:40.398Z,80.80
2018-02-08T16:45:43.062Z,81.00
2018-02-08T16:47:45.665Z,81.10
2018-02-08T16:49:48.280Z,80.50
2018-02-08T16:51:50.900Z,80.30
2018-02-08T16:53:53.508Z,80.60
2018-02-08T16:55:56.861Z,81.40
2018-02-08T16:57:59.466Z,80.90
2018-02-08T17:02:11.757Z,80.50
2018-02-08T17:04:14.355Z,80.50
2018-02-08T17:06:17.039Z,81.10
2018-02-08T17:08:20.412Z,81.20
2018-02-08T17:10:23.029Z,80.80
2018-02-08T17:12:25.666Z,80.60
2018-02-08T17:14:28.236Z,80.50
2018-02-08T17:16:30.845Z,80.30
2018-02-08T17:18:34.325Z,80.70
2018-02-08T17:20:37.717Z,80.60
2018-02-08T17:22:41.060Z,80.80
2018-02-08T17:24:43.653Z,80.80
2018-02-08T17:26:46.288Z,80.90
2018-02-08T17:28:48.866Z,80.80
2018-02-08T17:30:51.492Z,80.80
2018-02-08T17:32:55.957Z,80.90
2018-02-08T17:34:58.977Z,81.30
2018-02-08T17:37:01.589Z,81.60
2018-02-08T17:39:05.128Z,81.90
2018-02-08T17:41:07.753Z,81.90
2018-02-08T17:43:11.122Z,82.20
2018-02-08T17:45:13.769Z,82.20
2018-02-08T17:47:16.376Z,82.60
2018-02-08T17:49:18.956Z,82.70
2018-02-08T17:51:21.609Z,83.00
2018-02-08T17:53:24.206Z,83.00
2018-02-08T17:55:27.557Z,83.50
2018-02-08T17:57:30.239Z,83.50
2018-02-08T17:59:32.837Z,83.60
2018-02-08T18:01:35.434Z,83.50
2018-02-08T18:03:38.801Z,83.70
2018-02-08T18:05:41.377Z,83.70
2018-02-08T18:07:43.973Z,83.60
2018-02-08T18:09:47.324Z,83.80
2018-02-08T18:11:49.913Z,83.70
2018-02-08T18:13:52.512Z,84.00
2018-02-08T18:15:55.898Z,83.90
2018-02-08T18:17:58.488Z,83.90
2018-02-08T18:20:01.870Z,84.40
2018-02-08T18:22:05.225Z,84.40
2018-02-08T18:24:08.673Z,84.50
2018-02-08T18:26:12.025Z,85.00
2018-02-08T18:28:14.642Z,85.00
2018-02-08T18:30:17.270Z,85.00
2018-02-08T18:32:19.868Z,84.60
2018-02-08T18:34:22.470Z,84.70
2018-02-08T18:36:25.070Z,83.80
2018-02-08T18:38:27.689Z,84.90
2018-02-08T18:40:30.312Z,85.20
2018-02-08T18:42:32.941Z,84.90
2018-02-08T18:44:36.341Z,85.30
2018-02-08T18:46:39.915Z,85.30
2018-02-08T18:48:42.712Z,85.30
2018-02-08T18:50:46.102Z,86.20
2018-02-08T18:52:48.725Z,86.10
2018-02-08T18:54:51.644Z,86.30
2018-02-08T18:56:54.273Z,85.90
2018-02-08T18:58:56.867Z,85.20
2018-02-08T19:00:59.829Z,84.90
2018-02-08T19:03:02.536Z,85.00
2018-02-08T19:05:05.132Z,85.30
2018-02-08T19:07:07.729Z,85.40
2018-02-08T19:09:11.498Z,86.30
2018-02-08T19:11:14.091Z,86.30
2018-02-08T19:13:16.702Z,86.40
2018-02-08T19:15:19.328Z,86.20
2018-02-08T19:17:21.982Z,86.70
2018-02-08T19:19:24.589Z,86.80
2018-02-08T19:21:27.182Z,86.60
2018-02-08T19:23:29.814Z,87.20
2018-02-08T19:25:32.444Z,86.90
2018-02-08T19:27:35.101Z,87.10
2018-02-08T19:29:38.500Z,87.00
2018-02-08T19:31:41.913Z,87.00
2018-02-08T19:33:44.492Z,86.90
2018-02-08T19:35:47.088Z,86.30
2018-02-08T19:37:49.781Z,86.10
2018-02-08T19:39:52.401Z,86.20
2018-02-08T19:41:54.999Z,86.30
2018-02-08T19:43:57.592Z,86.60
2018-02-08T19:46:00.221Z,86.80
2018-02-08T19:48:02.809Z,86.70
2018-02-08T19:50:05.386Z,86.30
2018-02-08T19:52:08.019Z,86.60
2018-02-08T19:54:11.399Z,87.60
2018-02-08T19:56:13.999Z,87.60
2018-02-08T19:58:17.373Z,87.90
2018-02-08T20:00:19.961Z,87.90
2018-02-08T20:02:23.432Z,86.90
2018-02-08T20:04:26.061Z,86.80
2018-02-08T20:06:28.672Z,87.40
2018-02-08T20:08:31.509Z,87.50
2018-02-08T20:10:34.126Z,87.60
2018-02-08T20:12:36.728Z,87.60
2018-02-08T20:14:40.117Z,88.10
2018-02-08T20:16:42.771Z,88.10
2018-02-08T20:20:54.208Z,87.10
2018-02-08T20:22:56.800Z,87.30
2018-02-08T20:24:59.412Z,87.10
2018-02-08T20:27:02.017Z,87.60
2018-02-08T20:29:05.389Z,87.10
2018-02-08T20:31:09.931Z,87.10
2018-02-08T20:33:13.292Z,87.00
2018-02-08T20:35:15.917Z,87.00
2018-02-08T20:37:18.510Z,87.00
2018-02-08T20:39:21.245Z,88.10
2018-02-08T20:41:24.609Z,88.70
2018-02-08T20:43:29.081Z,88.30
2018-02-08T20:45:31.664Z,87.90
2018-02-08T20:47:34.294Z,87.60
2018-02-08T20:49:36.894Z,86.80
2018-02-08T20:51:40.309Z,87.20
2018-02-08T20:53:43.732Z,86.60
2018-02-08T20:55:46.390Z,86.60
2018-02-08T20:57:48.986Z,86.70
2018-02-08T20:59:51.585Z,87.40
2018-02-08T21:01:54.982Z,86.90
2018-02-08T21:03:58.373Z,86.30
2018-02-08T21:06:01.764Z,86.60
2018-02-08T21:08:05.145Z,86.50
2018-02-08T21:10:08.569Z,87.10
2018-02-08T21:12:11.954Z,87.50
2018-02-08T21:14:15.329Z,87.20
2018-02-08T21:16:17.995Z,87.10
2018-02-08T21:18:20.664Z,86.70
2018-02-08T21:20:23.282Z,87.60
2018-02-08T21:22:26.660Z,87.40
2018-02-08T21:24:30.053Z,86.80
2018-02-08T21:26:33.581Z,87.30
2018-02-08T21:28:36.186Z,87.30
2018-02-08T21:30:38.800Z,87.20
2018-02-08T21:32:42.173Z,87.40
2018-02-08T21:34:44.768Z,87.40
2018-02-08T21:36:48.157Z,87.70
2018-02-08T21:38:51.569Z,87.30
2018-02-08T21:40:54.173Z,87.30
2018-02-08T21:42:56.857Z,87.70
2018-02-08T21:44:59.476Z,88.10
2018-02-08T21:47:02.843Z,88.30
2018-02-08T21:49:05.422Z,87.60
2018-02-08T21:51:08.144Z,88.20
2018-02-08T21:53:10.753Z,88.30
2018-02-08T21:55:13.332Z,88.30
2018-02-08T21:57:16.677Z,88.70
2018-02-08T21:59:19.272Z,88.90
2018-02-08T22:01:21.871Z,89.10
2018-02-08T22:03:24.493Z,89.10
2018-02-08T22:05:27.148Z,88.60
2018-02-08T22:07:30.553Z,88.20
2018-02-08T22:09:33.907Z,88.50
2018-02-08T22:11:36.505Z,88.40
2018-02-08T22:13:39.144Z,88.10
2018-02-08T22:15:41.798Z,88.00
2018-02-08T22:17:44.425Z,88.40
2018-02-08T22:19:47.021Z,88.10
2018-02-08T22:21:50.445Z,88.80
2018-02-08T22:23:53.066Z,88.80
2018-02-08T22:25:55.663Z,88.70
2018-02-08T22:27:59.055Z,88.20
2018-02-08T22:30:02.422Z,88.50
2018-02-08T22:32:05.027Z,88.40
2018-02-08T22:34:07.655Z,88.00
2018-02-08T22:36:10.267Z,88.00
2018-02-08T22:38:13.748Z,87.90
2018-02-08T22:40:16.345Z,87.80
2018-02-08T22:42:19.693Z,87.40
2018-02-08T22:44:22.363Z,87.40
2018-02-08T22:46:24.945Z,87.40
2018-02-08T22:48:27.518Z,87.40
2018-02-08T22:50:30.142Z,87.80
2018-02-08T22:52:32.810Z,87.90
2018-02-08T22:54:36.184Z,88.30
2018-02-08T22:56:39.528Z,88.10
2018-02-08T22:58:42.126Z,88.00
2018-02-08T23:00:44.733Z,88.70
2018-02-08T23:02:47.324Z,88.90
2018-02-08T23:04:49.936Z,89.00
2018-02-08T23:06:52.533Z,89.00
2018-02-08T23:08:55.123Z,89.00
2018-02-08T23:10:58.513Z,88.50
2018-02-08T23:13:01.102Z,88.50
2018-02-08T23:15:04.471Z,88.50
2018-02-08T23:17:07.075Z,88.50
2018-02-08T23:19:10.520Z,89.10
2018-02-08T23:21:13.152Z,89.10
2018-02-08T23:23:15.789Z,89.50
2018-02-08T23:25:18.362Z,89.10
2018-02-08T23:27:21.004Z,89.10
2018-02-08T23:29:23.647Z,89.10
2018-02-08T23:31:26.236Z,89.40
2018-02-08T23:33:28.845Z,89.00
2018-02-08T23:35:31.429Z,88.90
2018-02-08T23:37:34.017Z,88.70
2018-02-08T23:39:37.416Z,89.80
2018-02-08T23:41:39.992Z,89.70
2018-02-08T23:43:43.350Z,89.00
2018-02-08T23:45:46.725Z,89.90
2018-02-08T23:47:49.324Z,89.90
2018-02-08T23:49:51.938Z,90.10
2018-02-08T23:51:54.541Z,90.10
2018-02-08T23:53:57.145Z,89.60
2018-02-08T23:55:59.738Z,89.90
2018-02-08T23:58:02.379Z,90.00
